createdAt,value
2022-09-05T04:46:07.147Z,12.07
2022-09-05T04:46:57.094Z,12.05
2022-09-05T04:47:47.081Z,12.07
2022-09-05T04:48:37.063Z,12.04
2022-09-05T04:49:27.084Z,12.03
2022-09-05T04:50:20.304Z,12.01
2022-09-05T04:51:08.073Z,12.00
2022-09-05T04:52:00.771Z,11.98
2022-09-05T04:52:47.028Z,11.97
2022-09-05T04:53:37.012Z,11.96
2022-09-05T04:54:30.104Z,11.97
2022-09-05T04:55:17.011Z,11.96
2022-09-05T04:56:07.019Z,11.98
2022-09-05T04:56:56.993Z,11.98
2022-09-05T04:57:46.981Z,11.98
2022-09-05T05:00:42.683Z,11.98
2022-09-05T05:05:17.954Z,11.98
2022-09-05T05:06:00.769Z,12.03
2022-09-05T05:06:01.032Z,12.01
2022-09-05T05:06:05.145Z,12.01
2022-09-05T05:06:09.585Z,12.01
2022-09-05T05:06:11.399Z,12.03
2022-09-05T05:06:16.108Z,12.03
2022-09-05T05:06:16.465Z,12.03
2022-09-05T05:06:37.920Z,12.03
2022-09-05T05:06:57.961Z,12.03
2022-09-05T05:07:47.993Z,12.01
2022-09-05T05:08:38.723Z,12.01
2022-09-05T05:09:26.855Z,12.03
2022-09-05T05:13:03.667Z,12.00
2022-09-05T05:15:04.388Z,11.98
2022-09-05T05:16:03.639Z,11.97
2022-09-05T05:17:55.923Z,11.97
2022-09-05T05:18:02.334Z,12.00
2022-09-05T05:18:06.723Z,12.00
2022-09-05T05:18:06.879Z,11.98
2022-09-05T05:18:09.601Z,12.00
2022-09-05T05:18:13.757Z,11.97
2022-09-05T05:18:13.921Z,12.00
2022-09-05T05:18:52.470Z,12.03
2022-09-05T05:19:27.825Z,12.03
2022-09-05T05:20:41.829Z,12.03
2022-09-05T05:21:07.905Z,12.03
2022-09-05T05:21:56.699Z,12.03
2022-09-05T05:22:46.692Z,12.01
2022-09-05T05:23:36.670Z,12.01
2022-09-05T05:24:26.670Z,12.01
2022-09-05T05:25:16.682Z,12.03
2022-09-05T05:26:06.706Z,12.04
2022-09-05T05:26:57.201Z,12.07
2022-09-05T05:27:46.662Z,12.07
2022-09-05T05:28:36.627Z,12.08
2022-09-05T05:29:26.643Z,12.05
2022-09-05T05:30:16.621Z,12.05
2022-09-05T05:31:06.622Z,12.07
2022-09-05T05:31:56.623Z,12.05
2022-09-05T05:32:46.866Z,12.07
2022-09-05T05:33:36.579Z,12.05
2022-09-05T05:34:26.576Z,12.07
2022-09-05T05:35:16.549Z,12.07
2022-09-05T05:36:06.566Z,12.08
2022-09-05T05:37:00.365Z,12.07
2022-09-05T05:37:46.548Z,12.05
2022-09-05T05:38:36.517Z,12.11
2022-09-05T05:39:26.560Z,12.08
2022-09-05T05:40:16.497Z,12.12
2022-09-05T05:41:06.520Z,12.12
2022-09-05T05:41:56.478Z,12.13
2022-09-05T05:42:46.479Z,12.15
2022-09-05T05:43:36.476Z,12.13
2022-09-05T05:44:26.459Z,12.16
2022-09-05T05:45:16.438Z,12.18
2022-09-05T05:46:08.387Z,12.16
2022-09-05T05:46:56.439Z,12.18
2022-09-05T05:47:46.426Z,12.16
2022-09-05T05:48:36.408Z,12.18
2022-09-05T05:49:26.398Z,12.16
2022-09-05T05:50:16.378Z,12.16
2022-09-05T05:51:06.397Z,12.16
2022-09-05T05:52:01.319Z,12.19
2022-09-05T05:52:47.366Z,12.22
2022-09-05T05:53:43.734Z,12.22
2022-09-05T05:54:27.338Z,12.23
2022-09-05T05:55:50.396Z,12.26
2022-09-05T05:56:07.346Z,12.26
2022-09-05T05:56:56.319Z,12.29
2022-09-05T05:57:46.314Z,12.30
2022-09-05T05:58:36.286Z,12.30
2022-09-05T05:59:26.297Z,12.33
2022-09-05T06:00:16.273Z,12.33
2022-09-05T06:01:09.426Z,12.33
2022-09-05T06:01:57.330Z,12.33
2022-09-05T06:02:46.316Z,12.36
2022-09-05T06:03:36.433Z,12.37
2022-09-05T06:04:26.236Z,12.37
2022-09-05T06:05:16.222Z,12.37
2022-09-05T06:06:06.229Z,12.38
2022-09-05T06:06:56.195Z,12.38
2022-09-05T06:08:29.146Z,12.41
2022-09-05T06:11:37.566Z,12.41
2022-09-05T06:14:50.161Z,12.43
2022-09-05T06:14:50.429Z,12.44
2022-09-05T06:14:50.623Z,12.43
2022-09-05T06:14:55.329Z,12.48
2022-09-05T06:15:00.624Z,12.52
2022-09-05T06:15:00.799Z,12.49
2022-09-05T06:15:02.641Z,12.51
2022-09-05T06:15:22.327Z,12.51
2022-09-05T06:16:07.164Z,12.52
2022-09-05T06:16:56.104Z,12.51
2022-09-05T06:17:46.094Z,12.51
2022-09-05T06:18:36.072Z,12.51
2022-09-05T06:19:26.072Z,12.51
2022-09-05T06:22:04.715Z,12.49
2022-09-05T06:22:11.183Z,12.51
2022-09-05T06:22:11.512Z,12.51
2022-09-05T06:22:47.034Z,12.49
2022-09-05T06:23:39.616Z,12.49
2022-09-05T06:24:26.025Z,12.48
2022-09-05T06:25:16.990Z,12.49
2022-09-05T06:26:06.074Z,12.46
2022-09-05T06:26:55.984Z,12.49
2022-09-05T06:28:18.007Z,12.52
2022-09-05T06:28:36.995Z,12.54
2022-09-05T06:29:38.318Z,12.55
2022-09-05T06:30:16.933Z,12.56
2022-09-05T06:31:30.615Z,12.58
2022-09-05T06:31:57.015Z,12.61
2022-09-05T06:32:53.896Z,12.62
2022-09-05T06:33:36.938Z,12.63
2022-09-05T06:34:30.914Z,12.66
2022-09-05T06:35:16.933Z,12.69
2022-09-05T06:36:05.983Z,12.70
2022-09-05T06:36:55.893Z,12.71
2022-09-05T06:37:45.855Z,12.73
2022-09-05T06:38:35.870Z,12.73
2022-09-05T06:39:25.892Z,12.74
2022-09-05T06:40:15.869Z,12.76
2022-09-05T06:41:05.901Z,12.74
2022-09-05T06:41:55.811Z,12.76
2022-09-05T06:42:45.792Z,12.77
2022-09-05T06:43:35.792Z,12.79
2022-09-05T06:44:26.238Z,12.81
2022-09-05T06:45:27.130Z,12.84
2022-09-05T06:46:06.867Z,12.84
2022-09-05T06:47:22.698Z,12.85
2022-09-05T06:47:46.785Z,12.85
2022-09-05T06:48:45.829Z,12.85
2022-09-05T06:49:29.991Z,12.91
2022-09-05T06:50:27.630Z,12.94
2022-09-05T06:51:08.345Z,12.96
2022-09-05T06:52:06.859Z,12.99
2022-09-05T06:52:46.693Z,13.01
2022-09-05T06:53:35.729Z,13.03
2022-09-05T06:54:25.680Z,13.03
2022-09-05T06:55:15.683Z,13.06
2022-09-05T06:56:05.682Z,13.07
2022-09-05T06:56:55.669Z,13.10
2022-09-05T06:57:45.632Z,13.12
2022-09-05T06:58:35.634Z,13.14
2022-09-05T06:59:25.622Z,13.16
2022-09-05T07:00:19.620Z,13.22
2022-09-05T07:01:08.549Z,13.28
2022-09-05T07:02:01.225Z,13.31
2022-09-05T07:02:58.767Z,13.32
2022-09-05T07:03:36.591Z,13.36
2022-09-05T07:05:23.504Z,13.39
2022-09-05T07:05:37.767Z,13.41
2022-09-05T07:06:07.478Z,13.43
2022-09-05T07:07:01.566Z,13.44
2022-09-05T07:07:46.517Z,13.46
2022-09-05T07:08:37.212Z,13.50
2022-09-05T07:09:28.728Z,13.51
2022-09-05T07:10:37.521Z,13.53
2022-09-05T07:11:16.531Z,13.55
2022-09-05T07:11:56.482Z,13.59
2022-09-05T07:12:45.468Z,13.59
2022-09-05T07:13:37.174Z,13.62
2022-09-05T07:14:25.478Z,13.66
2022-09-05T07:15:15.490Z,13.71
2022-09-05T07:16:05.516Z,13.76
2022-09-05T07:16:55.485Z,13.80
2022-09-05T07:18:09.092Z,13.81
2022-09-05T07:18:36.403Z,13.84
2022-09-05T07:19:25.418Z,13.88
2022-09-05T07:20:15.415Z,13.90
2022-09-05T07:21:15.955Z,13.94
2022-09-05T07:21:56.381Z,13.98
2022-09-05T07:22:47.344Z,13.99
2022-09-05T07:24:06.034Z,13.99
2022-09-05T07:24:53.472Z,14.02
2022-09-05T07:25:18.270Z,14.04
2022-09-05T07:26:05.379Z,14.08
2022-09-05T07:26:55.328Z,14.11
2022-09-05T07:28:25.704Z,14.13
2022-09-05T07:28:36.332Z,14.17
2022-09-05T07:29:25.293Z,14.23
2022-09-05T07:30:15.281Z,14.26
2022-09-05T07:31:05.314Z,14.29
2022-09-05T07:31:55.308Z,14.31
2022-09-05T07:32:45.264Z,14.35
2022-09-05T07:33:35.310Z,14.39
2022-09-05T07:34:25.241Z,14.44
2022-09-05T07:35:15.453Z,14.45
2022-09-05T07:36:05.241Z,14.46
2022-09-05T07:37:14.043Z,14.52
2022-09-05T07:37:46.210Z,14.54
2022-09-05T07:38:48.289Z,14.56
2022-09-05T07:39:29.058Z,14.61
2022-09-05T07:40:25.343Z,14.63
2022-09-05T07:41:06.381Z,14.67
2022-09-05T07:41:55.157Z,14.75
2022-09-05T07:42:45.149Z,14.79
2022-09-05T07:43:35.150Z,14.83
2022-09-05T07:44:25.139Z,14.86
2022-09-05T07:45:15.283Z,14.93
2022-09-05T07:46:05.134Z,14.95
2022-09-05T07:46:55.110Z,14.98
2022-09-05T07:47:45.114Z,15.03
2022-09-05T07:48:35.741Z,15.07
2022-09-05T07:49:25.058Z,15.09
2022-09-05T07:52:54.978Z,15.13
2022-09-05T07:55:20.439Z,15.13
2022-09-05T07:56:47.398Z,15.16
2022-09-05T07:56:49.589Z,15.34
2022-09-05T07:56:50.043Z,15.22
2022-09-05T07:56:51.145Z,15.27
2022-09-05T07:56:53.849Z,15.19
2022-09-05T07:57:09.637Z,15.30
2022-09-05T07:57:25.582Z,15.40
2022-09-05T07:57:51.617Z,15.49
2022-09-05T07:58:35.959Z,15.55
2022-09-05T07:59:24.949Z,15.60
2022-09-05T08:00:27.219Z,15.76
2022-09-05T08:01:05.988Z,15.81
2022-09-05T08:01:54.926Z,15.88
2022-09-05T08:02:46.953Z,15.92
2022-09-05T08:03:35.916Z,15.95
2022-09-05T08:04:24.893Z,16.04
2022-09-05T08:05:14.978Z,16.11
2022-09-05T08:06:05.905Z,16.14
2022-09-05T08:07:48.903Z,16.23
2022-09-05T08:07:51.479Z,16.33
2022-09-05T08:08:35.867Z,16.45
2022-09-05T08:10:09.070Z,16.55
2022-09-05T08:10:16.078Z,16.67
2022-09-05T08:11:23.993Z,16.75
2022-09-05T08:11:58.088Z,16.78
2022-09-05T08:13:22.378Z,16.87
2022-09-05T08:13:36.089Z,16.91
2022-09-05T08:14:43.518Z,16.98
2022-09-05T08:15:16.591Z,17.03
2022-09-05T08:16:10.450Z,17.09
2022-09-05T08:16:55.820Z,17.14
2022-09-05T08:17:44.765Z,17.18
2022-09-05T08:18:34.736Z,17.21
2022-09-05T08:19:24.728Z,17.28
2022-09-05T08:20:14.736Z,17.35
2022-09-05T08:21:04.739Z,17.42
2022-09-05T08:21:54.697Z,17.51
2022-09-05T08:22:52.275Z,17.60
2022-09-05T08:23:35.678Z,17.71
2022-09-05T08:24:24.685Z,17.76
2022-09-05T08:25:14.669Z,17.80
2022-09-05T08:26:04.665Z,17.92
2022-09-05T08:26:54.675Z,18.01
2022-09-05T08:27:44.643Z,18.05
2022-09-05T08:28:39.627Z,18.10
2022-09-05T08:29:27.579Z,18.17
2022-09-05T08:30:26.946Z,18.20
2022-09-05T08:31:05.635Z,18.29
2022-09-05T08:31:54.606Z,18.38
2022-09-05T08:32:44.578Z,18.46
2022-09-05T08:33:34.569Z,18.50
2022-09-05T08:34:31.422Z,18.57
2022-09-05T08:35:15.557Z,18.66
2022-09-05T08:36:04.571Z,18.68
2022-09-05T08:36:54.536Z,18.74
2022-09-05T08:37:44.520Z,18.82
2022-09-05T08:38:40.701Z,18.91
2022-09-05T08:39:25.574Z,19.05
2022-09-05T08:40:14.559Z,19.10
2022-09-05T08:41:04.520Z,19.16
2022-09-05T08:42:00.978Z,19.17
2022-09-05T08:42:55.801Z,19.24
2022-09-05T08:46:23.496Z,19.27
2022-09-05T08:46:39.657Z,19.34
2022-09-05T08:46:43.693Z,19.40
2022-09-05T08:46:46.735Z,19.35
2022-09-05T08:46:56.004Z,19.45
2022-09-05T08:47:45.762Z,19.52
2022-09-05T08:48:34.418Z,19.55
2022-09-05T08:49:36.830Z,19.60
2022-09-05T08:50:15.484Z,19.64
2022-09-05T08:51:04.401Z,19.65
2022-09-05T08:51:55.559Z,19.70
2022-09-05T08:52:44.357Z,19.75
2022-09-05T08:53:46.259Z,19.79
2022-09-05T08:54:25.347Z,19.85
2022-09-05T08:55:14.348Z,19.90
2022-09-05T08:56:04.349Z,19.97
2022-09-05T08:56:54.335Z,20.02
2022-09-05T08:57:44.317Z,20.15
2022-09-05T08:58:34.299Z,20.22
2022-09-05T08:59:28.391Z,20.31
2022-09-05T09:00:19.167Z,20.42
2022-09-05T09:01:05.342Z,20.53
2022-09-05T09:02:46.124Z,20.60
2022-09-05T09:02:48.528Z,20.71
2022-09-05T09:03:34.319Z,20.82
2022-09-05T09:04:37.175Z,20.96
2022-09-05T09:05:15.244Z,21.03
2022-09-05T09:06:13.415Z,21.09
2022-09-05T09:07:47.332Z,21.12
2022-09-05T09:07:50.515Z,21.16
2022-09-05T09:08:35.187Z,21.19
2022-09-05T09:09:24.187Z,21.26
2022-09-05T09:10:14.202Z,21.31
2022-09-05T09:11:05.177Z,21.36
2022-09-05T09:11:54.149Z,21.40
2022-09-05T09:12:44.136Z,21.45
2022-09-05T09:13:34.165Z,21.51
2022-09-05T09:14:30.424Z,21.55
2022-09-05T09:15:15.126Z,21.63
2022-09-05T09:16:04.176Z,21.71
2022-09-05T09:16:54.101Z,21.77
2022-09-05T09:17:44.076Z,21.81
2022-09-05T09:18:36.051Z,21.89
2022-09-05T09:19:29.316Z,21.96
2022-09-05T09:20:15.073Z,22.02
2022-09-05T09:21:04.074Z,22.12
2022-09-05T09:21:54.047Z,22.19
2022-09-05T09:22:44.028Z,22.26
2022-09-05T09:23:34.093Z,22.35
2022-09-05T09:24:24.014Z,22.45
2022-09-05T09:25:16.009Z,22.51
2022-09-05T09:26:04.015Z,22.60
2022-09-05T09:26:53.998Z,22.66
2022-09-05T09:28:22.580Z,22.74
2022-09-05T09:28:47.855Z,22.81
2022-09-05T09:29:24.954Z,22.86
2022-09-05T09:30:14.067Z,22.93
2022-09-05T09:31:04.013Z,22.96
2022-09-05T09:31:53.961Z,23.00
2022-09-05T09:32:43.930Z,23.07
2022-09-05T09:33:33.931Z,23.16
2022-09-05T09:34:23.907Z,23.19
2022-09-05T09:35:13.907Z,23.23
2022-09-05T09:36:07.889Z,23.29
2022-09-05T09:36:53.877Z,23.35
2022-09-05T09:37:50.638Z,23.41
2022-09-05T09:38:34.864Z,23.49
2022-09-05T09:39:37.678Z,23.57
2022-09-05T09:40:14.859Z,23.67
2022-09-05T09:41:03.853Z,23.72
2022-09-05T09:41:53.839Z,23.78
2022-09-05T09:42:43.807Z,23.81
2022-09-05T09:43:33.818Z,23.86
2022-09-05T09:44:23.796Z,23.81
2022-09-05T09:45:27.775Z,23.86
2022-09-05T09:46:04.806Z,23.89
2022-09-05T09:46:53.822Z,23.92
2022-09-05T09:47:43.769Z,23.97
2022-09-05T09:48:33.749Z,24.02
2022-09-05T09:49:23.827Z,24.06
2022-09-05T09:50:13.740Z,24.15
2022-09-05T09:51:03.949Z,24.24
2022-09-05T09:51:53.710Z,24.29
2022-09-05T09:52:43.715Z,24.36
2022-09-05T09:53:37.063Z,24.44
2022-09-05T09:54:23.675Z,24.48
2022-09-05T09:55:21.304Z,24.51
2022-09-05T09:56:06.992Z,24.56
2022-09-05T09:56:53.667Z,24.60
2022-09-05T09:57:43.637Z,24.60
2022-09-05T09:58:33.638Z,24.64
2022-09-05T09:59:23.629Z,24.66
2022-09-05T10:00:13.625Z,24.68
2022-09-05T10:01:03.605Z,24.74
2022-09-05T10:01:54.822Z,24.82
2022-09-05T10:06:49.552Z,24.86
2022-09-05T10:08:38.035Z,24.90
2022-09-05T10:08:55.784Z,24.89
2022-09-05T10:10:37.772Z,24.92
2022-09-05T10:10:51.317Z,24.98
2022-09-05T10:10:51.894Z,25.05
2022-09-05T10:10:53.342Z,25.09
2022-09-05T10:10:53.746Z,25.17
2022-09-05T10:10:53.991Z,24.93
2022-09-05T10:10:55.283Z,25.22
2022-09-05T10:11:55.421Z,25.29
2022-09-05T10:12:43.470Z,25.29
2022-09-05T10:13:33.463Z,25.35
2022-09-05T10:14:38.053Z,25.38
2022-09-05T10:15:30.760Z,25.42
2022-09-05T10:16:07.482Z,25.46
2022-09-05T10:16:53.434Z,25.49
2022-09-05T10:17:43.426Z,25.53
2022-09-05T10:18:33.402Z,25.54
2022-09-05T10:20:07.679Z,25.56
2022-09-05T10:20:14.441Z,25.54
2022-09-05T10:21:16.690Z,25.56
2022-09-05T10:22:44.384Z,25.57
2022-09-05T10:23:33.351Z,25.61
2022-09-05T10:24:23.361Z,25.63
2022-09-05T10:25:19.036Z,25.66
2022-09-05T10:26:04.350Z,25.72
2022-09-05T10:26:53.342Z,25.76
2022-09-05T10:27:44.515Z,25.82
2022-09-05T10:28:33.301Z,25.86
2022-09-05T10:29:37.761Z,25.93
2022-09-05T10:30:14.290Z,25.96
2022-09-05T10:32:53.613Z,26.00
2022-09-05T10:34:49.081Z,26.03
2022-09-05T10:35:04.967Z,26.06
2022-09-05T10:35:14.384Z,26.19
2022-09-05T10:35:17.910Z,26.12
2022-09-05T10:35:22.356Z,26.27
2022-09-05T10:36:04.304Z,26.31
2022-09-05T10:36:53.210Z,26.32
2022-09-05T10:37:43.211Z,26.38
2022-09-05T10:38:34.388Z,26.41
2022-09-05T10:39:23.207Z,26.42
2022-09-05T10:40:13.172Z,26.44
2022-09-05T10:41:21.642Z,26.44
2022-09-05T10:41:54.153Z,26.46
2022-09-05T10:43:00.136Z,26.49
2022-09-05T10:43:34.129Z,26.49
2022-09-05T10:44:23.122Z,26.51
2022-09-05T10:45:13.123Z,26.57
2022-09-05T10:46:03.153Z,26.54
2022-09-05T10:46:53.206Z,26.53
2022-09-05T10:47:43.094Z,26.54
2022-09-05T10:48:33.073Z,26.50
2022-09-05T10:49:23.081Z,26.44
2022-09-05T10:50:13.062Z,26.23
2022-09-05T10:51:03.061Z,26.21
2022-09-05T10:51:53.070Z,26.24
2022-09-05T10:52:43.050Z,26.29
2022-09-05T10:53:39.309Z,26.36
2022-09-05T10:54:24.035Z,26.44
2022-09-05T10:55:14.882Z,26.49
2022-09-05T10:56:03.020Z,26.42
2022-09-05T10:56:52.992Z,26.46
2022-09-05T10:57:42.990Z,26.50
2022-09-05T11:00:50.735Z,26.54
2022-09-05T11:02:19.070Z,26.47
2022-09-05T11:02:20.101Z,26.56
2022-09-05T11:02:28.222Z,26.46
2022-09-05T11:02:30.091Z,26.46
2022-09-05T11:02:46.717Z,26.39
2022-09-05T11:03:32.986Z,26.44
2022-09-05T11:04:23.041Z,26.50
2022-09-05T11:05:13.023Z,26.56
2022-09-05T11:06:09.023Z,26.64
2022-09-05T11:06:53.884Z,26.54
2022-09-05T11:07:42.876Z,26.44
2022-09-05T11:08:32.853Z,26.39
2022-09-05T11:09:22.853Z,26.38
2022-09-05T11:10:12.847Z,26.27
2022-09-05T11:11:02.844Z,26.23
2022-09-05T11:11:52.855Z,26.27
2022-09-05T11:12:42.824Z,26.34
2022-09-05T11:13:32.794Z,26.35
2022-09-05T11:14:26.906Z,26.36
2022-09-05T11:15:12.797Z,26.36
2022-09-05T11:16:03.789Z,26.34
2022-09-05T11:16:52.840Z,26.32
2022-09-05T11:17:42.754Z,26.32
2022-09-05T11:18:54.732Z,26.35
2022-09-05T11:19:23.754Z,26.38
2022-09-05T11:20:16.267Z,26.42
2022-09-05T11:21:03.715Z,26.49
2022-09-05T11:22:12.163Z,26.54
2022-09-05T11:22:43.708Z,26.60
2022-09-05T11:23:32.684Z,26.68
2022-09-05T11:24:27.114Z,26.73
2022-09-05T11:25:12.665Z,26.81
2022-09-05T11:26:02.656Z,26.88
2022-09-05T11:26:59.595Z,26.94
2022-09-05T11:27:43.726Z,26.79
2022-09-05T11:28:32.645Z,26.65
2022-09-05T11:29:22.636Z,26.59
2022-09-05T11:30:28.424Z,26.64
2022-09-05T11:31:03.654Z,26.68
2022-09-05T11:33:56.381Z,26.72
2022-09-05T11:37:04.254Z,26.76
2022-09-05T11:38:49.689Z,26.87
2022-09-05T11:39:48.467Z,27.15
2022-09-05T11:39:52.354Z,26.97
2022-09-05T11:39:53.973Z,26.78
2022-09-05T11:39:56.953Z,27.23
2022-09-05T11:40:06.361Z,27.23
2022-09-05T11:40:07.646Z,27.20
2022-09-05T11:40:10.267Z,27.06
2022-09-05T11:40:24.701Z,27.03
2022-09-05T11:41:10.074Z,26.94
2022-09-05T11:41:53.597Z,26.73
2022-09-05T11:42:42.486Z,26.68
2022-09-05T11:43:32.469Z,26.71
2022-09-05T11:44:25.983Z,26.78
2022-09-05T11:45:12.447Z,26.79
2022-09-05T11:46:02.544Z,26.87
2022-09-05T11:46:52.456Z,26.87
2022-09-05T11:47:44.689Z,26.94
2022-09-05T11:48:32.407Z,26.97
2022-09-05T11:49:22.417Z,27.03
2022-09-05T11:50:12.396Z,27.09
2022-09-05T11:51:02.387Z,27.15
2022-09-05T11:51:52.397Z,27.18
2022-09-05T11:52:42.387Z,27.20
2022-09-05T11:53:32.360Z,27.23
2022-09-05T11:54:22.359Z,27.25
2022-09-05T11:55:21.013Z,27.24
2022-09-05T11:56:03.355Z,27.16
2022-09-05T11:56:52.347Z,27.09
2022-09-05T11:57:42.317Z,27.11
2022-09-05T11:59:33.802Z,27.18
2022-09-05T12:00:33.621Z,27.24
2022-09-05T12:01:43.193Z,27.31
2022-09-05T12:01:53.296Z,27.34
2022-09-05T12:02:42.296Z,27.38
2022-09-05T12:03:57.088Z,27.49
2022-09-05T12:04:23.261Z,27.58
2022-09-05T12:05:48.292Z,27.66
2022-09-05T12:06:03.263Z,27.77
2022-09-05T12:06:52.218Z,27.87
2022-09-05T12:07:42.233Z,27.93
2022-09-05T12:08:32.209Z,28.01
2022-09-05T12:09:23.648Z,28.03
2022-09-05T12:10:45.792Z,28.08
2022-09-05T12:11:03.176Z,28.18
2022-09-05T12:11:52.197Z,28.25
2022-09-05T12:12:43.472Z,28.36
2022-09-05T12:13:32.177Z,28.46
2022-09-05T12:14:25.715Z,28.51
2022-09-05T12:15:12.116Z,28.51
2022-09-05T12:16:08.440Z,28.50
2022-09-05T12:16:53.130Z,28.50
2022-09-05T12:17:42.098Z,28.50
2022-09-05T12:18:32.124Z,28.48
2022-09-05T12:19:22.878Z,28.50
2022-09-05T12:20:17.193Z,28.52
2022-09-05T12:21:03.069Z,28.52
2022-09-05T12:21:52.088Z,28.54
2022-09-05T12:22:42.049Z,28.54
2022-09-05T12:23:54.030Z,28.54
2022-09-05T12:25:16.084Z,28.57
2022-09-05T12:25:26.560Z,28.55
2022-09-05T12:27:37.048Z,28.54
2022-09-05T12:27:40.163Z,28.52
2022-09-05T12:27:46.418Z,28.50
2022-09-05T12:29:28.143Z,28.50
2022-09-05T12:29:35.272Z,28.50
2022-09-05T12:30:14.165Z,28.54
2022-09-05T12:32:00.254Z,28.57
2022-09-05T12:33:14.849Z,28.58
2022-09-05T12:35:52.923Z,28.61
2022-09-05T12:36:06.370Z,28.60
2022-09-05T12:36:06.599Z,28.61
2022-09-05T12:36:10.757Z,28.62
2022-09-05T12:39:01.382Z,28.76
2022-09-05T12:40:04.959Z,28.72
2022-09-05T12:40:35.718Z,28.74
2022-09-05T12:40:42.964Z,27.15
2022-09-05T12:40:57.991Z,28.72
2022-09-05T12:41:46.048Z,28.58
2022-09-05T12:42:10.210Z,28.62
2022-09-05T12:42:10.884Z,28.69
2022-09-05T12:42:14.702Z,28.51
2022-09-05T12:42:54.563Z,28.43
2022-09-05T12:44:37.493Z,28.39
2022-09-05T12:44:42.314Z,28.28
2022-09-05T12:45:12.962Z,28.23
2022-09-05T12:46:01.813Z,28.18
2022-09-05T12:46:52.820Z,28.18
2022-09-05T12:47:41.780Z,28.21
2022-09-05T12:48:39.265Z,28.20
2022-09-05T12:49:22.777Z,28.24
2022-09-05T12:50:15.186Z,28.23
2022-09-05T12:51:01.762Z,28.25
2022-09-05T12:51:51.743Z,28.30
2022-09-05T12:52:41.733Z,28.33
2022-09-05T12:53:31.723Z,28.38
2022-09-05T12:54:33.564Z,28.38
2022-09-05T12:55:12.702Z,28.39
2022-09-05T12:58:02.736Z,28.42
2022-09-05T12:58:34.634Z,28.40
2022-09-05T13:02:55.057Z,28.40
2022-09-05T13:02:56.793Z,28.45
2022-09-05T13:03:03.473Z,28.42
2022-09-05T13:03:06.815Z,28.43
2022-09-05T13:03:07.542Z,28.43
2022-09-05T13:03:12.395Z,28.46
2022-09-05T13:03:12.525Z,28.43
2022-09-05T13:03:33.074Z,28.48
2022-09-05T13:04:25.208Z,28.52
2022-09-05T13:05:12.685Z,28.48
2022-09-05T13:06:01.775Z,28.46
2022-09-05T13:06:51.582Z,28.48
2022-09-05T13:07:41.575Z,28.51
2022-09-05T13:08:31.568Z,28.52
2022-09-05T13:09:21.569Z,28.58
2022-09-05T13:12:43.880Z,28.62
2022-09-05T13:14:05.769Z,28.69
2022-09-05T13:14:48.472Z,28.80
2022-09-05T13:14:56.823Z,29.21
2022-09-05T13:14:57.928Z,29.11
2022-09-05T13:14:58.315Z,28.97
2022-09-05T13:15:22.653Z,29.32
2022-09-05T13:16:02.564Z,29.41
2022-09-05T13:16:51.476Z,29.47
2022-09-05T13:17:41.457Z,29.54
2022-09-05T13:18:31.435Z,29.60
2022-09-05T13:19:21.564Z,29.70
2022-09-05T13:20:11.426Z,29.76
2022-09-05T13:21:01.428Z,29.89
2022-09-05T13:21:51.418Z,30.04
2022-09-05T13:22:48.486Z,30.19
2022-09-05T13:23:32.385Z,30.34
2022-09-05T13:24:21.397Z,30.56
2022-09-05T13:25:11.401Z,30.75
2022-09-05T13:26:01.356Z,30.96
2022-09-05T13:26:51.365Z,31.18
2022-09-05T13:27:41.366Z,31.35
2022-09-05T13:28:31.363Z,31.53
2022-09-05T13:29:21.327Z,31.69
2022-09-05T13:31:42.058Z,31.92
2022-09-05T13:36:40.747Z,32.12
2022-09-05T13:37:58.029Z,32.76
2022-09-05T13:38:03.240Z,32.50
2022-09-05T13:38:03.467Z,32.65
2022-09-05T13:38:07.303Z,32.83
2022-09-05T13:38:11.032Z,32.31
2022-09-05T13:38:12.200Z,32.32
2022-09-05T13:38:17.737Z,32.68
2022-09-05T13:38:20.787Z,32.81
2022-09-05T13:38:48.783Z,31.99
2022-09-05T13:39:22.354Z,32.09
2022-09-05T13:40:11.317Z,32.27
2022-09-05T13:41:01.211Z,32.22
2022-09-05T13:41:51.204Z,32.27
2022-09-05T13:42:41.223Z,32.41
2022-09-05T13:43:31.170Z,32.59
2022-09-05T13:44:26.706Z,32.56
2022-09-05T13:45:12.181Z,32.68
2022-09-05T13:46:01.224Z,32.83
2022-09-05T13:46:54.627Z,32.87
2022-09-05T13:47:42.154Z,32.76
2022-09-05T13:49:24.078Z,32.85
2022-09-05T13:49:25.023Z,32.78
2022-09-05T13:50:12.132Z,32.32
2022-09-05T13:51:01.120Z,32.44
2022-09-05T13:51:51.131Z,32.62
2022-09-05T13:52:41.112Z,32.90
2022-09-05T13:53:31.113Z,33.11
2022-09-05T13:54:22.091Z,33.22
2022-09-05T13:55:11.061Z,33.24
2022-09-05T13:56:03.574Z,33.33
2022-09-05T13:56:51.053Z,33.45
2022-09-05T13:57:41.065Z,33.53
2022-09-05T13:58:31.044Z,33.52
2022-09-05T13:59:21.023Z,33.37
2022-09-05T14:00:15.404Z,33.33
2022-09-05T14:01:02.097Z,33.09
2022-09-05T14:02:25.178Z,33.02
2022-09-05T14:03:39.101Z,33.02
2022-09-05T14:05:17.711Z,33.02
2022-09-05T14:06:01.967Z,32.98
2022-09-05T14:06:52.067Z,32.90
2022-09-05T14:07:44.513Z,32.78
2022-09-05T14:08:30.927Z,32.66
2022-09-05T14:09:37.899Z,32.36
2022-09-05T14:10:11.950Z,32.10
2022-09-05T14:11:00.936Z,31.65
2022-09-05T14:11:50.914Z,31.53
2022-09-05T14:12:40.916Z,31.30
2022-09-05T14:13:30.904Z,31.03
2022-09-05T14:15:08.226Z,30.88
2022-09-05T14:15:14.083Z,30.82
2022-09-05T14:16:00.855Z,30.79
2022-09-05T14:16:50.847Z,30.78
2022-09-05T14:17:56.291Z,30.72
2022-09-05T14:18:33.926Z,30.63
2022-09-05T14:19:20.807Z,30.53
2022-09-05T14:20:10.818Z,30.46
2022-09-05T14:21:00.814Z,30.42
2022-09-05T14:21:50.802Z,30.34
2022-09-05T14:22:40.787Z,30.30
2022-09-05T14:23:31.735Z,30.22
2022-09-05T14:24:27.463Z,30.18
2022-09-05T14:25:11.780Z,30.26
2022-09-05T14:26:00.745Z,30.25
2022-09-05T14:26:50.731Z,30.30
2022-09-05T14:27:40.738Z,30.53
2022-09-05T14:28:30.725Z,30.78
2022-09-05T14:29:20.725Z,31.01
2022-09-05T14:31:38.722Z,31.25
2022-09-05T14:33:39.658Z,31.47
2022-09-05T14:37:38.730Z,32.32
2022-09-05T14:37:42.237Z,31.84
2022-09-05T14:37:44.165Z,32.22
2022-09-05T14:37:46.662Z,31.67
2022-09-05T14:37:51.827Z,32.22
2022-09-05T14:37:52.109Z,32.12
2022-09-05T14:38:00.524Z,31.98
2022-09-05T14:38:04.274Z,32.40
2022-09-05T14:38:32.051Z,32.46
2022-09-05T14:39:20.645Z,32.53
2022-09-05T14:40:30.559Z,32.68
2022-09-05T14:41:02.770Z,32.73
2022-09-05T14:42:07.950Z,32.76
2022-09-05T14:42:41.957Z,32.71
2022-09-05T14:43:30.571Z,32.77
2022-09-05T14:44:20.562Z,32.73
2022-09-05T14:45:10.544Z,32.62
2022-09-05T14:46:02.416Z,32.62
2022-09-05T14:46:50.533Z,32.39
2022-09-05T14:47:40.535Z,32.35
2022-09-05T14:48:30.531Z,32.41
2022-09-05T14:49:20.505Z,32.53
2022-09-05T14:50:14.921Z,32.66
2022-09-05T14:51:01.474Z,32.85
2022-09-05T14:51:50.506Z,33.05
2022-09-05T14:52:43.945Z,33.17
2022-09-05T14:56:50.169Z,33.38
2022-09-05T15:01:44.647Z,33.43
2022-09-05T15:02:41.281Z,33.57
2022-09-05T15:02:44.135Z,33.99
2022-09-05T15:02:44.859Z,33.78
2022-09-05T15:02:48.796Z,33.86
2022-09-05T15:02:51.313Z,33.92
2022-09-05T15:02:53.584Z,34.11
2022-09-05T15:03:00.461Z,34.26
2022-09-05T15:04:39.652Z,34.36
2022-09-05T15:05:12.154Z,34.37
2022-09-05T15:06:00.409Z,34.40
2022-09-05T15:06:50.316Z,34.21
2022-09-05T15:07:40.317Z,34.03
2022-09-05T15:11:25.902Z,33.84
2022-09-05T15:11:26.269Z,33.59
2022-09-05T15:12:14.704Z,33.45
2022-09-05T15:12:16.500Z,33.43
2022-09-05T15:12:19.781Z,33.24
2022-09-05T15:12:49.455Z,33.21
2022-09-05T15:13:31.269Z,32.98
2022-09-05T15:14:20.276Z,32.83
2022-09-05T15:15:10.236Z,32.84
2022-09-05T15:16:02.815Z,32.85
2022-09-05T15:16:50.273Z,32.71
2022-09-05T15:17:40.226Z,32.68
2022-09-05T15:18:30.216Z,32.58
2022-09-05T15:19:20.186Z,32.58
2022-09-05T15:20:10.198Z,32.59
2022-09-05T15:21:00.187Z,32.49
2022-09-05T15:21:50.178Z,32.25
2022-09-05T15:22:40.156Z,32.05
2022-09-05T15:23:30.175Z,32.13
2022-09-05T15:24:21.357Z,32.27
2022-09-05T15:25:17.422Z,32.35
2022-09-05T15:26:01.132Z,32.47
2022-09-05T15:26:51.208Z,32.62
2022-09-05T15:27:40.100Z,32.65
2022-09-05T15:28:30.126Z,32.77
2022-09-05T15:29:20.080Z,32.93
2022-09-05T15:30:10.076Z,33.00
2022-09-05T15:31:00.121Z,33.11
2022-09-05T15:31:58.923Z,33.28
2022-09-05T15:32:41.051Z,33.34
2022-09-05T15:33:30.057Z,33.38
2022-09-05T15:34:20.047Z,33.45
2022-09-05T15:35:10.040Z,33.38
2022-09-05T15:36:00.014Z,33.20